Estación Meteorológica Peña el Pijo (Robertgarden) [ 12/09/19 17:11:44 CET ]

Fecha Hora Presion(HPa) Temp (°C) Humedad % Rocio (°C) Viento ( m/s) Direccion Lluvia 1Hora(mm) Lluvia 24H(mm) LLuvia Total(mm)
2019-Nov-05 01:01:44 999.700 11.6 76 7.5 3.9 NE     21.23
2019-Nov-05 02:01:41 999.300 11.9 75 7.6         21.23
2019-Nov-05 03:01:32 999.300 11.2 78 7.5         21.23
2019-Nov-05 04:09:01 999.100 10.3 79 6.8         21.23
2019-Nov-05 05:01:27 999.900 9.4 81 6.3     0.51 0.51 21.75
2019-Nov-05 06:01:45 1000.300 8.3 82 5.4 1.3 NNW 0.51 1.03 22.27
2019-Nov-05 07:01:50 1000.900 7.9 76 3.9       1.03 22.27
2019-Nov-05 08:01:58 1001.800 7.7 75 3.5       1.03 22.27
2019-Nov-05 09:01:38 1002.400 7.8 73 3.3       1.03 22.27
2019-Nov-05 10:01:25 1002.700 9.0 68 3.4       1.03 22.27
2019-Nov-05 11:01:35 1003.100 10.1 61 2.9 2.2 NE   1.03 22.27
2019-Nov-05 12:01:53 1003.600 11.2 59 3.4       1.03 22.27
2019-Nov-05 13:01:35 1003.200 10.5 61 3.3       1.03 22.27
2019-Nov-05 14:02:10 1003.000 10.7 62 3.7 2.6 NNW   1.03 22.27
2019-Nov-05 15:01:49 1002.800 10.6 62 3.6       1.03 22.27
2019-Nov-05 16:02:04 1003.100 10.1 65 3.8       1.03 22.27
2019-Nov-05 17:01:47 1003.000 9.9 67 4.0       1.03 22.27
2019-Nov-05 18:01:51 1003.000 7.6 75 3.4       1.03 22.27
2019-Nov-05 19:01:42 1004.000 7.6 77 3.8       1.03 22.27
2019-Nov-05 20:01:43 1004.500 7.4 77 3.6       1.03 22.27
2019-Nov-05 21:01:48 1004.800 8.5 74 4.1 0.8 NNE   1.03 22.27
2019-Nov-05 22:01:52 1005.400 8.9 70 3.7       1.03 22.27
2019-Nov-05 23:01:58 1005.500 9.4 68 3.8       1.03 22.27

Temperatura Máxima:11°    Temperatura Mínima:
Presión Máxima:1005.500 Hpa    Presión Mínima:999.100 Hpa


Volver